Aaron Joseph — WCV9877 — position and weather

sailwx.info

Track history (hours):
 
Tides and Currents Weather Stations Pressure Air Temp Water Temp Dewpoint Dewpoint Depression Visibility Wind Speed Wind Dir Waves Ship Positions

Aaron Joseph

Owner: AARON JOSEPH INC, GOLDEN MEADOW, LA. More information available from US FCC via Universal Licensing System and Coast Guard Vessel Documentation Center.

Last reported at 2017-Jun-20 00:45 UTC. Time now 2017-Jul-27 02:42 UTC.
Position N 29°50' W 091°59'.
Warning: this ship's position is 37 days out of date.

; draft 2.5 m.

Type: Tug. MMSI: 367028680.

Date/timePositionNaut miles runAvg speedWind from/ knotsBaromVisibWave heightAir tempDewpointWater temp
2017-Jun-20 00:45N 29°50' W 091°59'2 8.3
2017-Jun-20 00:30N 29°49' W 092°02'4 8.1
2017-Jun-20 00:00N 29°48' W 092°06'4 7.9
2017-Jun-19 23:30N 29°47' W 092°10'4 7.4
2017-Jun-19 23:00N 29°48' W 092°14'4 7.6
2017-Jun-19 22:30N 29°50' W 092°18'41 7.4
2017-Jun-19 16:59N 29°56' W 093°04'4 7.6
2017-Jun-19 16:30N 29°56' W 093°09'5 7.2
2017-Jun-19 15:49N 29°59' W 093°13'2 7.0
2017-Jun-19 15:30N 30°01' W 093°14'23 6.6
2017-Jun-19 12:04N 30°04' W 093°40'0 8.2
2017-Jun-19 12:00N 30°04' W 093°41'71 6.4
2017-Jun-19 00:56N 29°33' W 094°55'9 8.6
2017-Jun-18 23:55N 29°41' W 094°59'7 6.5
2017-Jun-18 22:50N 29°45' W 095°06'  
2017-Jun-15 01:49N 29°44' W 095°15'3 5.5
2017-Jun-15 01:12N 29°45' W 095°11'1 6.6
2017-Jun-15 00:59N 29°45' W 095°10'3 6.4
2017-Jun-15 00:30N 29°45' W 095°06'1 1.8
2017-Jun-14 23:59N 29°45' W 095°05'3 3.5
2017-Jun-14 23:07N 29°44' W 095°09'2 7.1
2017-Jun-14 22:53N 29°45' W 095°11'  
Track history (hours):
 
Tides and Currents Weather Stations Pressure Air Temp Water Temp Dewpoint Dewpoint Depression Visibility Wind Speed Wind Dir Waves Ship Positions

Aaron Joseph

Owner: AARON JOSEPH INC, GOLDEN MEADOW, LA. More information available from US FCC via Universal Licensing System and Coast Guard Vessel Documentation Center.

Last reported at 2017-Jun-20 00:45 UTC. Time now 2017-Jul-27 02:42 UTC.
Position N 29°50' W 091°59'.
Warning: this ship's position is 37 days out of date.

; draft 2.5 m.

Type: Tug. MMSI: 367028680.

Date/timePositionNaut miles runAvg speedWind from/ knotsBaromVisibWave heightAir tempDewpointWater temp
2017-Jun-20 00:45N 29°50' W 091°59'2 8.3
2017-Jun-20 00:30N 29°49' W 092°02'4 8.1
2017-Jun-20 00:00N 29°48' W 092°06'4 7.9
2017-Jun-19 23:30N 29°47' W 092°10'4 7.4
2017-Jun-19 23:00N 29°48' W 092°14'4 7.6
2017-Jun-19 22:30N 29°50' W 092°18'41 7.4
2017-Jun-19 16:59N 29°56' W 093°04'4 7.6
2017-Jun-19 16:30N 29°56' W 093°09'5 7.2
2017-Jun-19 15:49N 29°59' W 093°13'2 7.0
2017-Jun-19 15:30N 30°01' W 093°14'23 6.6
2017-Jun-19 12:04N 30°04' W 093°40'0 8.2
2017-Jun-19 12:00N 30°04' W 093°41'71 6.4
2017-Jun-19 00:56N 29°33' W 094°55'9 8.6
2017-Jun-18 23:55N 29°41' W 094°59'7 6.5
2017-Jun-18 22:50N 29°45' W 095°06'  
2017-Jun-15 01:49N 29°44' W 095°15'3 5.5
2017-Jun-15 01:12N 29°45' W 095°11'1 6.6
2017-Jun-15 00:59N 29°45' W 095°10'3 6.4
2017-Jun-15 00:30N 29°45' W 095°06'1 1.8
2017-Jun-14 23:59N 29°45' W 095°05'3 3.5
2017-Jun-14 23:07N 29°44' W 095°09'2 7.1
2017-Jun-14 22:53N 29°45' W 095°11'  

Dump ship's entire track history